Архив погоды в Каменск-Шахтинском

Метеограмма Каменск-Шахтинский
Понедельник, 24 Сентября
Время местн. Темп Ветер Видим Явления Облачность нижн/средн/верх Атм. давл. Влжн Точка росы ВНГО R Сост. почвы Tg s
Напр Скр Прв ур.ст ур.м изм
06:00 +8.3° С-З 1 - 20 км - ясно 759 765 +0.4 89% +6.6° более 2.5 км - Влажная (без луж) - -
03:00 +10.2° З,С-З 3 - 20 км небо без изменений {ливневые осадки} переменная облачность 759 764 +0.8 87% +8.2° - - - - -
00:00 +10.7° З 2 - 20 км небо без изменений {ливневые осадки} облачно с прояснениями 758 763 +1 87% +8.6° - - - - -
Воскресенье, 23 Сентября
Время местн. Темп Ветер Видим Явления Облачность нижн/средн/верх Атм. давл. Влжн Точка росы ВНГО R Сост. почвы Tg s
Напр Скр Прв ур.ст ур.м изм
21:00 +12° З,С-З 4 - 20 км слабый ливневый дождь облачно 757 762 +2 89% +10.2° 1 км - - - -
18:00 +17.2° С-З 7 12 20 км - облачно 755 760 +0.8 63% +10.2° 1 км - - - -
15:00 +27.6° Ю 5 - 20 км - преимущественно облачно 754 759 -1.4 28% +7.4° 1 км - - - -
12:00 +26.8° Ю 4 - 20 км - переменная облачность 755 760 -1.3 33% +9.2° более 2.5 км - - - -
09:00 +20.8° Ю-В 5 - 20 км - ясно 757 762 -0.7 53% +10.8° более 2.5 км - - - -
06:00 +13° Ю-В 3 - 20 км - ясно 757 763 -0.8 74% +8.4° более 2.5 км - Сухая (без трещин) - -
03:00 +14.2° В,Ю-В 3 - 20 км - ясно 758 763 -0.8 70% +8.9° более 2.5 км - - - -
00:00 +15.3° В,Ю-В 1 - 20 км - ясно 759 764 -0.6 66% +9.1° более 2.5 км - - - -
Суббота, 22 Сентября
Время местн. Темп Ветер Видим Явления Облачность нижн/средн/верх Атм. давл. Влжн Точка росы ВНГО R Сост. почвы Tg s
Напр Скр Прв ур.ст ур.м изм
21:00 +16.9° Ю-В 2 - 20 км - ясно 760 765 +0.2 60% +9.1° более 2.5 км - - - -
18:00 +23.3° В,Ю-В 3 - 20 км - ясно 759 765 -0.5 42% +9.5° более 2.5 км - - - -
15:00 +26.6° В,Ю-В 4 - 20 км - ясно 760 765 -1.1 33% +8.9° более 2.5 км - - - -
12:00 +25.6° В 4 - 20 км - ясно 761 766 -0.6 37% +9.9° более 2.5 км - - - -
06:00 +8.9° Ю-В 1 - 20 км - ясно 761 767 +0.1 86% +6.7° более 2.5 км - Сухая (без трещин) - -
03:00 +10.5° штиль 0 - 20 км - ясно 762 767 +0.5 82% +7.5° более 2.5 км - - - -
00:00 +16.4° Ю,Ю-В 2 - 20 км - ясно 761 766 +0.5 54% +7.2° более 2.5 км - - - -
Пятница, 21 Сентября
Время местн. Темп Ветер Видим Явления Облачность нижн/средн/верх Атм. давл. Влжн Точка росы ВНГО R Сост. почвы Tg s
Напр Скр Прв ур.ст ур.м изм
21:00 +19.8° Ю-В 1 - 20 км - ясно 761 766 +0.8 40% +5.7° более 2.5 км - - - -
18:00 +26.1° С,С-В 2 - 20 км - ясно 760 765 +0.2 27% +5.4° более 2.5 км - - - -
15:00 +29° С 3 - 20 км - ясно 760 765 -0.4 21% +4.3° более 2.5 км - - - -
12:00 +25.9° С-З 2 - 20 км - ясно 760 765 +0.1 41% +11.6° более 2.5 км - - - -
09:00 +18.9° С-З 2 - 20 км - незначительная облачность 760 765 +0.7 54% +9.5° более 2.5 км - - - -
06:00 +11.8° С-З 1 - 20 км - незначительная облачность 759 765 +0.4 84% +9.2° более 2.5 км - Сухая (без трещин) - -
03:00 +13.5° С-З 2 - 20 км - ясно 759 764 +0.1 76% +9.4° более 2.5 км - - - -
00:00 +16.4° штиль 0 - 20 км - ясно 759 764 +0.1 65% +9.7° более 2.5 км - - - -